Bear Lake, Canada
Current Conditions -  °F | °C
As of 8:00 PM on Sunday 23 Nov 2014 (Local Time) from CYYD Reporting Station
Moderate Fog Moderate Fog  
Wind Chill: 32°   Ceiling: 300
Heat Index: 32°   Visibility: 0.5mi
Dew Point: 32°   Wind: 3mph
Humidity: 100%   Direction: 240°WSW
Pressure: 29.95"   Gusts: NA
Location:  56.2°N, 126.85°W
Report Text: CYYD 240400Z 24003KT 130V260 1/2SM FG VV003 00/00 A2995 RMK FG8 VIS VRD 1/4 - 1 LAST STFD OBS/NEXT 241500 UTC SLP163
Loading
Personal Weather Stations






























Interactive Weather Map New forecast layout! Learn more

10-Day Weather Forecast

Advertisements
Track Severe Weather on mobile